createdAt,value
2023-05-23T00:01:17.055Z,27.90
2023-05-23T00:03:45.389Z,28.10
2023-05-23T00:06:14.733Z,28.10
2023-05-23T00:08:42.933Z,28.20
2023-05-23T00:11:13.351Z,28.10
2023-05-23T00:13:41.541Z,28.20
2023-05-23T00:16:10.678Z,28.10
2023-05-23T00:18:40.208Z,28.40
2023-05-23T00:21:09.839Z,28.10
2023-05-23T00:23:38.491Z,28.30
2023-05-23T00:26:06.744Z,28.50
2023-05-23T00:28:36.354Z,28.50
2023-05-23T00:31:04.739Z,28.40
2023-05-23T00:33:33.305Z,28.40
2023-05-23T00:36:01.655Z,28.20
2023-05-23T00:38:29.980Z,28.00
2023-05-23T00:40:58.245Z,27.40
2023-05-23T00:43:26.534Z,27.60
2023-05-23T00:45:56.150Z,27.50
2023-05-23T00:48:25.686Z,27.40
2023-05-23T00:50:54.892Z,27.50
2023-05-23T00:53:23.811Z,27.40
2023-05-23T00:55:52.400Z,27.50
2023-05-23T00:58:21.548Z,27.30
2023-05-23T01:00:50.407Z,27.50
2023-05-23T01:03:20.198Z,27.40
2023-05-23T01:05:48.958Z,27.30
2023-05-23T01:08:17.219Z,27.30
2023-05-23T01:10:45.584Z,26.80
2023-05-23T01:13:23.036Z,26.80
2023-05-23T01:15:56.804Z,26.60
2023-05-23T01:18:34.505Z,26.70
2023-05-23T01:21:07.830Z,26.80
2023-05-23T01:24:05.041Z,27.00
2023-05-23T01:26:37.702Z,26.80
2023-05-23T01:29:14.694Z,27.10
2023-05-23T01:31:47.129Z,26.90
2023-05-23T01:34:17.091Z,26.60
2023-05-23T01:36:46.636Z,26.60
2023-05-23T01:39:14.996Z,26.60
2023-05-23T01:41:43.424Z,26.60
2023-05-23T01:44:13.210Z,26.40
2023-05-23T01:46:42.285Z,26.50
2023-05-23T01:49:14.613Z,26.40
2023-05-23T01:51:43.352Z,26.30
2023-05-23T01:54:11.738Z,26.00
2023-05-23T01:56:40.955Z,26.00
2023-05-23T01:59:09.149Z,26.00
2023-05-23T02:01:39.697Z,25.70
2023-05-23T02:04:08.072Z,25.60
2023-05-23T02:06:36.273Z,25.40
2023-05-23T02:09:04.505Z,25.40
2023-05-23T02:11:33.684Z,25.60
2023-05-23T02:14:02.472Z,25.30
2023-05-23T02:16:30.701Z,24.90
2023-05-23T02:19:02.045Z,25.30
2023-05-23T02:21:34.279Z,25.30
2023-05-23T02:24:05.134Z,25.20
2023-05-23T02:26:33.340Z,25.10
2023-05-23T02:29:01.898Z,25.10
2023-05-23T02:31:31.034Z,24.70
2023-05-23T02:34:00.750Z,24.70
2023-05-23T02:36:28.960Z,24.80
2023-05-23T02:38:57.221Z,24.70
2023-05-23T02:41:25.727Z,24.30
2023-05-23T02:43:54.412Z,24.60
2023-05-23T02:46:22.975Z,24.80
2023-05-23T02:48:51.336Z,24.50
2023-05-23T02:51:21.372Z,24.60
2023-05-23T02:53:49.621Z,24.60
2023-05-23T02:56:18.852Z,24.40
2023-05-23T02:58:47.141Z,24.70
2023-05-23T03:01:16.151Z,24.60
2023-05-23T03:03:44.593Z,24.20
2023-05-23T03:06:14.745Z,24.60
2023-05-23T03:08:45.383Z,24.40
2023-05-23T03:11:13.622Z,24.60
2023-05-23T03:13:41.877Z,24.30
2023-05-23T03:16:10.116Z,24.50
2023-05-23T03:18:38.443Z,24.60
2023-05-23T03:21:06.708Z,24.80
2023-05-23T03:23:35.015Z,24.60
2023-05-23T03:26:06.654Z,24.70
2023-05-23T03:28:35.078Z,24.40
2023-05-23T03:31:03.425Z,24.60
2023-05-23T03:33:32.131Z,24.90
2023-05-23T03:36:00.408Z,25.10
2023-05-23T03:38:29.163Z,25.30
2023-05-23T03:40:57.451Z,25.30
2023-05-23T03:43:27.180Z,25.30
2023-05-23T03:45:55.456Z,25.60
2023-05-23T03:48:23.729Z,25.60
2023-05-23T03:50:52.609Z,25.50
2023-05-23T03:53:20.887Z,25.40
2023-05-23T03:55:49.120Z,25.60
2023-05-23T03:58:17.360Z,25.80
2023-05-23T04:00:50.424Z,25.90
2023-05-23T04:03:19.033Z,26.10
2023-05-23T04:05:47.597Z,26.20
2023-05-23T04:08:15.904Z,26.40
2023-05-23T04:10:44.162Z,26.40
2023-05-23T04:13:12.560Z,26.50
2023-05-23T04:15:45.166Z,26.70
2023-05-23T04:18:17.400Z,26.80
2023-05-23T04:20:46.387Z,27.00
2023-05-23T04:23:14.634Z,27.00
2023-05-23T04:25:46.050Z,27.00
2023-05-23T04:28:27.652Z,26.90
2023-05-23T04:30:56.381Z,26.80
2023-05-23T04:33:30.482Z,26.80
2023-05-23T04:35:58.886Z,26.50
2023-05-23T04:38:27.778Z,26.50
2023-05-23T04:40:57.946Z,27.30
2023-05-23T04:43:42.716Z,27.70
2023-05-23T04:46:26.801Z,27.70
2023-05-23T04:49:15.045Z,28.10
2023-05-23T04:51:43.398Z,28.30
2023-05-23T04:54:22.152Z,28.60
2023-05-23T04:56:50.574Z,28.90
2023-05-23T04:59:21.129Z,29.10
2023-05-23T05:01:51.744Z,29.20
2023-05-23T05:04:23.422Z,29.30
2023-05-23T05:06:52.544Z,29.60
2023-05-23T05:09:23.011Z,29.70
2023-05-23T05:11:54.534Z,29.80
2023-05-23T05:14:23.421Z,29.90
2023-05-23T05:16:51.751Z,30.10
2023-05-23T05:19:23.169Z,30.30
2023-05-23T05:21:51.437Z,30.40
2023-05-23T05:24:21.003Z,30.50
2023-05-23T05:26:50.213Z,30.60
2023-05-23T05:29:19.615Z,30.70
2023-05-23T05:31:47.868Z,30.60
2023-05-23T05:34:16.059Z,30.70
2023-05-23T05:36:48.341Z,30.80
2023-05-23T05:39:19.273Z,30.90
2023-05-23T05:41:47.754Z,30.80
2023-05-23T05:44:16.493Z,30.80
2023-05-23T05:46:46.854Z,30.90
2023-05-23T05:49:15.110Z,30.70
2023-05-23T05:51:46.603Z,30.90
2023-05-23T05:54:17.133Z,30.90
2023-05-23T05:56:47.822Z,30.70
2023-05-23T05:59:16.999Z,30.90
2023-05-23T06:01:46.029Z,30.80
2023-05-23T06:04:15.059Z,31.00
2023-05-23T06:06:43.374Z,31.10
2023-05-23T06:09:13.176Z,31.20
2023-05-23T06:11:41.408Z,31.10
2023-05-23T06:14:10.080Z,31.30
2023-05-23T06:16:42.310Z,31.20
2023-05-23T06:19:13.720Z,31.10
2023-05-23T06:21:44.025Z,30.80
2023-05-23T06:24:14.617Z,30.80
2023-05-23T06:26:43.036Z,30.70
2023-05-23T06:29:11.258Z,30.90
2023-05-23T06:31:39.767Z,30.90
2023-05-23T06:34:08.028Z,31.20
2023-05-23T06:36:36.348Z,31.20
2023-05-23T06:39:04.594Z,31.20
2023-05-23T06:41:34.168Z,31.10
2023-05-23T06:44:03.086Z,30.80
2023-05-23T06:46:32.989Z,31.00
2023-05-23T06:49:14.481Z,30.90
2023-05-23T06:51:45.063Z,31.20
2023-05-23T06:54:13.937Z,31.10
2023-05-23T06:56:43.816Z,30.80
2023-05-23T06:59:14.812Z,31.10
2023-05-23T07:01:43.615Z,31.00
2023-05-23T07:04:13.532Z,31.20
2023-05-23T07:06:42.116Z,31.60
2023-05-23T07:09:12.580Z,30.50
2023-05-23T07:11:44.493Z,30.50
2023-05-23T07:14:14.554Z,30.00
2023-05-23T07:16:45.370Z,30.50
2023-05-23T07:19:14.273Z,30.90
2023-05-23T07:21:51.528Z,31.20
2023-05-23T07:24:21.223Z,31.20
2023-05-23T07:26:51.643Z,30.80
2023-05-23T07:29:20.122Z,31.30
2023-05-23T07:31:50.078Z,31.60
2023-05-23T07:34:18.848Z,31.30
2023-05-23T07:37:00.538Z,31.20
2023-05-23T07:39:34.058Z,31.30
2023-05-23T07:42:04.541Z,30.80
2023-05-23T07:44:33.000Z,31.50
2023-05-23T07:47:02.852Z,31.80
2023-05-23T07:49:31.435Z,31.90
2023-05-23T07:52:00.169Z,32.20
2023-05-23T07:54:28.552Z,32.30
2023-05-23T07:57:00.440Z,32.20
2023-05-23T07:59:30.247Z,32.00
2023-05-23T08:01:59.126Z,32.10
2023-05-23T08:04:28.385Z,31.80
2023-05-23T08:09:35.814Z,32.40
2023-05-23T08:12:04.691Z,32.40
2023-05-23T08:14:42.737Z,32.20
2023-05-23T08:17:25.022Z,32.40
2023-05-23T08:19:53.971Z,32.90
2023-05-23T08:22:22.285Z,32.90
2023-05-23T08:24:50.654Z,32.90
2023-05-23T08:27:19.727Z,32.80
2023-05-23T08:29:53.768Z,33.20
2023-05-23T08:32:22.887Z,33.40
2023-05-23T08:34:51.134Z,33.60
2023-05-23T08:37:20.701Z,33.80
2023-05-23T08:39:49.569Z,33.80
2023-05-23T08:42:53.145Z,33.90
2023-05-23T08:45:24.480Z,34.00
2023-05-23T08:47:53.644Z,34.10
2023-05-23T08:50:24.608Z,34.00
2023-05-23T08:52:57.257Z,34.10
2023-05-23T08:55:27.755Z,34.00
2023-05-23T08:57:57.667Z,33.50
2023-05-23T09:00:56.469Z,33.20
2023-05-23T09:03:27.583Z,33.40
2023-05-23T09:06:04.609Z,33.50
2023-05-23T09:08:33.567Z,33.70
2023-05-23T09:11:02.995Z,33.70
2023-05-23T09:13:34.335Z,33.90
2023-05-23T09:16:07.974Z,33.90
2023-05-23T09:18:44.436Z,33.80
2023-05-23T09:21:15.826Z,34.00
2023-05-23T09:24:00.224Z,33.70
2023-05-23T09:26:29.150Z,34.00
2023-05-23T09:28:59.871Z,34.20
2023-05-23T09:31:32.828Z,34.30
2023-05-23T09:34:01.242Z,33.80
2023-05-23T09:36:33.777Z,34.00
2023-05-23T09:39:05.693Z,34.00
2023-05-23T09:41:35.228Z,34.00
2023-05-23T09:44:07.513Z,34.30
2023-05-23T09:46:39.254Z,34.20
2023-05-23T09:49:18.740Z,34.30
2023-05-23T09:51:59.194Z,34.50
2023-05-23T09:54:27.591Z,34.70
2023-05-23T09:56:57.416Z,34.90
2023-05-23T09:59:30.131Z,35.10
2023-05-23T10:02:03.569Z,34.90
2023-05-23T10:04:35.311Z,35.00
2023-05-23T10:07:08.612Z,34.70
2023-05-23T10:09:40.495Z,34.70
2023-05-23T10:12:40.753Z,34.60
2023-05-23T10:15:10.952Z,34.60
2023-05-23T10:18:01.156Z,34.40
2023-05-23T10:20:32.963Z,34.70
2023-05-23T10:23:02.380Z,34.20
2023-05-23T10:25:32.032Z,34.40
2023-05-23T10:28:03.871Z,34.80
2023-05-23T10:30:33.029Z,34.60
2023-05-23T10:33:04.413Z,34.80
2023-05-23T10:35:42.673Z,34.70
2023-05-23T10:38:22.101Z,34.80
2023-05-23T10:40:56.253Z,34.90
2023-05-23T10:43:30.498Z,34.90
2023-05-23T10:45:58.906Z,34.70
2023-05-23T10:48:36.834Z,34.70
2023-05-23T10:51:06.874Z,34.80
2023-05-23T10:53:37.388Z,34.70
2023-05-23T10:56:09.777Z,34.60
2023-05-23T10:58:41.041Z,34.30
2023-05-23T11:01:13.886Z,34.40
2023-05-23T11:03:55.345Z,34.60
2023-05-23T11:06:33.385Z,34.90
2023-05-23T11:09:07.559Z,35.20
2023-05-23T11:12:05.615Z,35.20
2023-05-23T11:14:55.894Z,34.90
2023-05-23T11:17:34.746Z,34.90
2023-05-23T11:20:07.201Z,35.10
2023-05-23T11:22:36.519Z,34.90
2023-05-23T11:25:08.882Z,34.90
2023-05-23T11:27:38.819Z,34.90
2023-05-23T11:30:11.825Z,35.30
2023-05-23T11:32:41.194Z,35.30
2023-05-23T11:35:15.019Z,35.60
2023-05-23T11:37:44.543Z,35.70
2023-05-23T11:40:30.252Z,35.90
2023-05-23T11:42:58.931Z,35.90
2023-05-23T11:45:28.113Z,36.00
2023-05-23T11:47:56.411Z,36.10
2023-05-23T11:50:26.075Z,36.10
2023-05-23T11:52:56.302Z,36.10
2023-05-23T11:55:24.885Z,36.00
2023-05-23T11:57:53.383Z,36.00
2023-05-23T12:00:21.993Z,36.00
2023-05-23T12:02:50.400Z,36.10
2023-05-23T12:05:19.263Z,36.00
2023-05-23T12:07:50.183Z,35.70
2023-05-23T12:10:20.986Z,35.80
2023-05-23T12:12:49.436Z,35.60
2023-05-23T12:15:17.998Z,35.50
2023-05-23T12:17:47.282Z,35.50
2023-05-23T12:20:16.393Z,35.50
2023-05-23T12:22:44.711Z,35.60
2023-05-23T12:25:14.440Z,35.70
2023-05-23T12:27:44.110Z,35.80
2023-05-23T12:30:15.180Z,35.80
2023-05-23T12:32:44.765Z,35.80
2023-05-23T12:35:15.110Z,35.80
2023-05-23T12:37:45.856Z,35.90
2023-05-23T12:40:18.053Z,35.90
2023-05-23T12:42:51.583Z,36.00
2023-05-23T12:45:20.061Z,36.10
2023-05-23T12:47:48.342Z,36.10
2023-05-23T12:50:16.793Z,35.80
2023-05-23T12:52:45.071Z,35.90
2023-05-23T12:55:16.133Z,36.00
2023-05-23T12:57:44.353Z,36.20
2023-05-23T13:00:13.580Z,36.30
2023-05-23T13:02:42.077Z,36.40
2023-05-23T13:05:13.646Z,36.40
2023-05-23T13:07:42.398Z,36.40
2023-05-23T13:10:11.719Z,36.30
2023-05-23T13:12:41.336Z,36.40
2023-05-23T13:15:12.693Z,36.40
2023-05-23T13:17:40.959Z,36.30
2023-05-23T13:20:13.331Z,36.50
2023-05-23T13:22:41.706Z,36.30
2023-05-23T13:25:10.832Z,36.40
2023-05-23T13:27:38.994Z,36.50
2023-05-23T13:30:10.200Z,36.30
2023-05-23T13:32:38.831Z,36.30
2023-05-23T13:35:08.125Z,36.20
2023-05-23T13:37:36.765Z,36.30
2023-05-23T13:40:06.597Z,36.30
2023-05-23T13:42:35.411Z,36.30
2023-05-23T13:45:04.902Z,36.20
2023-05-23T13:47:35.403Z,36.20
2023-05-23T13:50:03.958Z,36.30
2023-05-23T13:52:32.328Z,36.20
2023-05-23T13:55:04.558Z,36.40
2023-05-23T13:57:32.764Z,36.20
2023-05-23T14:00:02.712Z,36.20
2023-05-23T14:02:35.843Z,36.20
2023-05-23T14:05:05.029Z,36.20
2023-05-23T14:07:33.373Z,36.20
2023-05-23T14:10:05.350Z,36.20
2023-05-23T14:12:33.599Z,36.30
2023-05-23T14:15:01.798Z,36.20
2023-05-23T14:17:30.560Z,36.20
2023-05-23T14:20:02.647Z,36.30
2023-05-23T14:22:32.140Z,36.30
2023-05-23T14:25:00.312Z,36.20
2023-05-23T14:27:28.796Z,36.20
2023-05-23T14:29:56.985Z,36.10
2023-05-23T14:32:25.460Z,35.70
2023-05-23T14:34:53.745Z,35.10
2023-05-23T14:37:23.484Z,34.50
2023-05-23T14:39:54.243Z,34.10
2023-05-23T14:42:22.438Z,33.40
2023-05-23T14:44:51.967Z,32.50
2023-05-23T14:47:20.156Z,31.90
2023-05-23T14:49:48.394Z,31.40
2023-05-23T14:52:17.503Z,30.80
2023-05-23T14:54:47.109Z,30.50
2023-05-23T14:57:15.429Z,30.40
2023-05-23T14:59:43.634Z,30.30
2023-05-23T15:02:14.762Z,30.00
2023-05-23T15:04:43.031Z,29.80
2023-05-23T15:07:11.300Z,29.40
2023-05-23T15:09:39.565Z,29.40
2023-05-23T15:12:09.817Z,29.30
2023-05-23T15:14:38.169Z,29.60
2023-05-23T15:17:08.637Z,29.70
2023-05-23T15:19:37.311Z,30.10
2023-05-23T15:22:06.197Z,30.40
2023-05-23T15:24:35.122Z,30.70
2023-05-23T15:27:18.882Z,30.70
2023-05-23T15:29:49.773Z,30.60
2023-05-23T15:32:18.196Z,30.90
2023-05-23T15:34:46.831Z,31.10
2023-05-23T15:37:15.083Z,31.40
2023-05-23T15:39:43.448Z,31.80
2023-05-23T15:42:14.576Z,32.10
2023-05-23T15:44:42.885Z,32.10
2023-05-23T15:47:12.542Z,32.30
2023-05-23T15:49:40.777Z,32.40
2023-05-23T15:52:09.025Z,32.60
2023-05-23T15:54:38.944Z,32.80
2023-05-23T15:57:07.187Z,32.90
2023-05-23T15:59:37.348Z,32.90
2023-05-23T16:02:06.539Z,32.80
2023-05-23T16:04:36.774Z,32.80
2023-05-23T16:07:05.360Z,32.70
2023-05-23T16:09:33.708Z,32.70
2023-05-23T16:12:01.883Z,32.70
2023-05-23T16:14:31.267Z,32.80
2023-05-23T16:17:02.726Z,32.90
2023-05-23T16:19:31.089Z,32.90
2023-05-23T16:22:01.159Z,32.90
2023-05-23T16:24:29.553Z,32.90
2023-05-23T16:26:57.773Z,32.80
2023-05-23T16:29:25.999Z,32.90
2023-05-23T16:31:54.238Z,32.90
2023-05-23T16:34:22.523Z,32.50
2023-05-23T16:36:52.820Z,32.50
2023-05-23T16:39:22.413Z,32.80
2023-05-23T16:41:50.740Z,32.50
2023-05-23T16:44:18.936Z,32.30
2023-05-23T16:46:47.318Z,32.30
2023-05-23T16:49:15.662Z,32.20
2023-05-23T16:51:45.311Z,32.10
2023-05-23T16:54:14.707Z,32.10
2023-05-23T16:56:44.492Z,32.10
2023-05-23T16:59:12.679Z,31.60
2023-05-23T17:01:43.479Z,31.60
2023-05-23T17:04:11.698Z,31.50
2023-05-23T17:06:42.562Z,31.60
2023-05-23T17:09:13.569Z,31.60
2023-05-23T17:11:44.928Z,31.90
2023-05-23T17:14:13.223Z,31.90
2023-05-23T17:16:41.758Z,31.80
2023-05-23T17:19:10.078Z,31.60
2023-05-23T17:21:38.313Z,31.60
2023-05-23T17:24:06.760Z,31.70
2023-05-23T17:26:34.992Z,31.50
2023-05-23T17:29:04.554Z,31.80
2023-05-23T17:31:32.830Z,31.40
2023-05-23T17:34:04.067Z,31.30
2023-05-23T17:36:34.100Z,31.30
2023-05-23T17:39:02.334Z,31.20
2023-05-23T17:41:30.516Z,31.50
2023-05-23T17:43:58.761Z,31.50
2023-05-23T17:46:28.778Z,31.50
2023-05-23T17:48:57.016Z,31.10
2023-05-23T17:51:25.257Z,30.80
2023-05-23T17:53:53.873Z,31.00
2023-05-23T17:56:23.193Z,30.90
2023-05-23T17:58:52.715Z,30.80
2023-05-23T18:01:21.161Z,30.90
2023-05-23T18:03:53.617Z,31.20
2023-05-23T18:06:24.914Z,31.30
2023-05-23T18:08:54.092Z,31.30
2023-05-23T18:11:23.045Z,31.10
2023-05-23T18:13:51.442Z,31.20
2023-05-23T18:16:19.697Z,31.40
2023-05-23T18:18:47.900Z,31.60
2023-05-23T18:21:18.364Z,31.50
2023-05-23T18:23:46.613Z,31.60
2023-05-23T18:26:14.828Z,31.70
2023-05-23T18:28:43.057Z,31.60
2023-05-23T18:31:11.341Z,31.50
2023-05-23T18:33:41.944Z,31.60
2023-05-23T18:36:10.484Z,31.50
2023-05-23T18:38:41.553Z,31.60
2023-05-23T18:41:13.198Z,31.90
2023-05-23T18:43:42.877Z,31.80
2023-05-23T18:46:12.780Z,31.80
2023-05-23T18:48:41.154Z,31.70
2023-05-23T18:51:09.477Z,31.70
2023-05-23T18:53:40.833Z,31.60
2023-05-23T18:56:10.805Z,31.50
2023-05-23T18:58:39.024Z,31.30
2023-05-23T19:01:07.299Z,31.30
2023-05-23T19:03:37.157Z,31.30
2023-05-23T19:06:05.915Z,31.30
2023-05-23T19:08:34.635Z,31.30
2023-05-23T19:11:04.806Z,31.10
2023-05-23T19:13:32.996Z,31.00
2023-05-23T19:16:01.210Z,31.10
2023-05-23T19:18:29.534Z,31.10
2023-05-23T19:20:57.799Z,31.20
2023-05-23T19:23:26.413Z,31.10
2023-05-23T19:25:54.613Z,31.10
2023-05-23T19:28:24.176Z,31.10
2023-05-23T19:30:55.226Z,31.10
2023-05-23T19:33:23.484Z,31.20
2023-05-23T19:35:51.694Z,31.20
2023-05-23T19:38:19.941Z,31.00
2023-05-23T19:40:48.437Z,31.10
2023-05-23T19:43:17.141Z,31.10
2023-05-23T19:45:46.812Z,31.20
2023-05-23T19:48:15.136Z,31.10
2023-05-23T19:50:43.708Z,31.00
2023-05-23T19:53:15.402Z,31.00
2023-05-23T19:55:43.699Z,30.90
2023-05-23T19:58:11.918Z,30.70
2023-05-23T20:00:40.323Z,30.50
2023-05-23T20:03:10.188Z,30.50
2023-05-23T20:05:38.646Z,30.40
2023-05-23T20:08:06.873Z,30.40
2023-05-23T20:10:35.071Z,29.80
2023-05-23T20:13:03.283Z,29.60
2023-05-23T20:15:40.088Z,29.60
2023-05-23T20:18:10.590Z,29.40
2023-05-23T20:20:38.964Z,29.50
2023-05-23T20:23:07.883Z,29.20
2023-05-23T20:25:36.115Z,29.00
2023-05-23T20:28:04.313Z,29.10
2023-05-23T20:30:32.566Z,29.20
2023-05-23T20:33:00.853Z,29.40
2023-05-23T20:35:31.040Z,29.60
2023-05-23T20:37:59.428Z,29.70
2023-05-23T20:40:29.760Z,29.50
2023-05-23T20:43:04.305Z,29.70
2023-05-23T20:45:34.752Z,29.50
2023-05-23T20:48:03.049Z,29.60
2023-05-23T20:50:33.823Z,29.60
2023-05-23T20:53:02.703Z,29.90
2023-05-23T20:55:33.760Z,30.00
2023-05-23T20:58:02.177Z,29.80
2023-05-23T21:00:30.407Z,29.70
2023-05-23T21:03:02.054Z,29.90
2023-05-23T21:05:33.522Z,29.90
2023-05-23T21:08:01.880Z,29.90
2023-05-23T21:10:32.505Z,29.90
2023-05-23T21:13:00.715Z,29.90
2023-05-23T21:15:31.423Z,29.70
2023-05-23T21:18:00.038Z,29.80
2023-05-23T21:20:29.221Z,30.00
2023-05-23T21:23:00.880Z,30.00
2023-05-23T21:25:29.071Z,29.80
2023-05-23T21:27:57.288Z,29.90
2023-05-23T21:30:26.437Z,29.90
2023-05-23T21:32:54.927Z,29.80
2023-05-23T21:35:23.208Z,29.80
2023-05-23T21:37:51.516Z,29.80
2023-05-23T21:40:21.223Z,29.80
2023-05-23T21:42:49.428Z,29.90
2023-05-23T21:45:17.658Z,29.90
2023-05-23T21:47:45.908Z,29.50
2023-05-23T21:50:14.174Z,29.60
2023-05-23T21:52:42.372Z,29.50
2023-05-23T21:55:12.072Z,29.80
2023-05-23T21:57:43.976Z,29.90
2023-05-23T22:00:13.296Z,29.70
2023-05-23T22:02:44.383Z,29.80
2023-05-23T22:05:15.738Z,29.90
2023-05-23T22:07:43.959Z,29.70
2023-05-23T22:10:12.655Z,29.70
2023-05-23T22:12:42.269Z,29.70
2023-05-23T22:15:11.433Z,29.70
2023-05-23T22:17:43.300Z,29.80
2023-05-23T22:20:14.445Z,30.00
2023-05-23T22:22:42.995Z,29.20
2023-05-23T22:25:11.605Z,29.00
2023-05-23T22:27:41.216Z,29.10
2023-05-23T22:30:10.101Z,28.70
2023-05-23T22:32:38.338Z,29.00
2023-05-23T22:35:07.375Z,28.80
2023-05-23T22:37:35.699Z,28.70
2023-05-23T22:40:03.897Z,28.90
2023-05-23T22:42:32.096Z,29.10
2023-05-23T22:45:01.681Z,29.00
2023-05-23T22:47:32.430Z,29.20
2023-05-23T22:50:03.915Z,28.90
2023-05-23T22:52:34.641Z,28.80
2023-05-23T22:55:03.079Z,28.80
2023-05-23T22:57:31.352Z,29.00
2023-05-23T23:00:01.107Z,29.10
2023-05-23T23:02:29.457Z,29.00
2023-05-23T23:04:58.083Z,28.60
2023-05-23T23:07:26.289Z,28.50
2023-05-23T23:09:54.631Z,28.50
2023-05-23T23:12:22.922Z,28.60
2023-05-23T23:14:51.093Z,28.60
2023-05-23T23:17:20.715Z,28.70
2023-05-23T23:19:49.501Z,28.40
2023-05-23T23:22:18.537Z,28.70
2023-05-23T23:24:47.489Z,28.90
2023-05-23T23:27:15.837Z,28.60
2023-05-23T23:29:44.056Z,28.20
2023-05-23T23:32:12.474Z,28.50
2023-05-23T23:34:42.103Z,28.30
2023-05-23T23:37:10.395Z,28.50
2023-05-23T23:39:38.596Z,28.50
2023-05-23T23:42:07.081Z,28.30
2023-05-23T23:44:35.348Z,28.30
2023-05-23T23:47:03.574Z,28.50
2023-05-23T23:49:31.836Z,28.30
2023-05-23T23:52:01.760Z,28.10
2023-05-23T23:54:30.061Z,28.20
2023-05-23T23:56:58.288Z,28.50
2023-05-23T23:59:26.871Z,28.20
